createdAt,value
2018-07-14T00:00:07.308Z,60.95
2018-07-14T00:02:39.520Z,61.25
2018-07-14T00:05:11.875Z,61.47
2018-07-14T00:07:44.274Z,59.97
2018-07-14T00:10:17.848Z,61.44
2018-07-14T00:12:50.098Z,60.88
2018-07-14T00:15:22.519Z,61.55
2018-07-14T00:17:54.583Z,61.07
2018-07-14T00:20:26.890Z,60.57
2018-07-14T00:22:59.830Z,60.02
2018-07-14T00:25:36.408Z,58.41
2018-07-14T00:28:09.527Z,58.40
2018-07-14T00:30:41.967Z,61.22
2018-07-14T00:33:14.320Z,62.24
2018-07-14T00:35:46.454Z,61.19
2018-07-14T00:38:18.711Z,60.09
2018-07-14T00:40:51.039Z,61.14
2018-07-14T00:43:23.524Z,60.55
2018-07-14T00:45:56.266Z,62.34
2018-07-14T00:48:29.072Z,60.80
2018-07-14T00:51:01.324Z,58.87
2018-07-14T00:53:34.038Z,59.74
2018-07-14T00:56:06.783Z,61.29
2018-07-14T00:58:39.401Z,60.57
2018-07-14T01:01:11.434Z,60.75
2018-07-14T01:03:43.898Z,60.58
2018-07-14T01:06:16.392Z,58.92
2018-07-14T01:08:49.363Z,60.69
2018-07-14T01:11:22.475Z,61.15
2018-07-14T01:13:54.922Z,58.24
2018-07-14T01:16:27.766Z,59.66
2018-07-14T01:19:00.373Z,59.92
2018-07-14T01:21:32.317Z,61.38
2018-07-14T01:24:05.112Z,61.33
2018-07-14T01:26:37.437Z,61.91
2018-07-14T01:29:10.630Z,63.01
2018-07-14T01:31:43.136Z,62.84
2018-07-14T01:34:15.709Z,62.85
2018-07-14T01:36:47.475Z,62.00
2018-07-14T01:39:19.835Z,62.72
2018-07-14T01:41:52.143Z,63.50
2018-07-14T01:44:24.396Z,64.74
2018-07-14T01:46:57.136Z,64.16
2018-07-14T01:49:29.617Z,64.52
2018-07-14T01:52:02.113Z,64.80
2018-07-14T01:54:34.624Z,66.08
2018-07-14T01:57:07.229Z,65.95
2018-07-14T01:59:39.626Z,66.65
2018-07-14T02:02:12.190Z,64.81
2018-07-14T02:04:45.054Z,66.14
2018-07-14T02:07:17.328Z,66.65
2018-07-14T02:09:49.386Z,65.68
2018-07-14T02:12:21.450Z,66.64
2018-07-14T02:14:54.044Z,65.56
2018-07-14T02:17:26.211Z,65.14
2018-07-14T02:19:58.698Z,65.66
2018-07-14T02:22:30.965Z,64.81
2018-07-14T02:25:03.529Z,65.51
2018-07-14T02:27:36.118Z,66.47
2018-07-14T02:30:08.424Z,65.47
2018-07-14T02:32:41.091Z,65.37
2018-07-14T02:35:14.051Z,66.80
2018-07-14T02:37:46.840Z,66.01
2018-07-14T02:40:20.045Z,65.69
2018-07-14T02:42:54.032Z,66.17
2018-07-14T02:45:27.959Z,65.97
2018-07-14T02:48:03.080Z,66.52
2018-07-14T02:50:38.701Z,66.98
2018-07-14T02:53:11.512Z,66.19
2018-07-14T02:55:44.094Z,66.93
2018-07-14T02:58:16.995Z,66.31
2018-07-14T03:00:49.848Z,65.17
2018-07-14T03:03:22.501Z,65.83
2018-07-14T03:05:54.821Z,65.95
2018-07-14T03:08:27.771Z,65.83
2018-07-14T03:11:00.977Z,67.37
2018-07-14T03:13:33.350Z,67.49
2018-07-14T03:16:06.413Z,67.37
2018-07-14T03:18:38.531Z,66.60
2018-07-14T03:21:11.210Z,65.34
2018-07-14T03:23:43.659Z,65.41
2018-07-14T03:26:16.647Z,65.22
2018-07-14T03:28:49.222Z,64.31
2018-07-14T03:31:21.801Z,64.37
2018-07-14T03:33:54.607Z,64.31
2018-07-14T03:36:27.736Z,65.39
2018-07-14T03:39:00.088Z,64.03
2018-07-14T03:41:32.764Z,64.58
2018-07-14T03:44:06.003Z,66.21
2018-07-14T03:46:39.549Z,66.18
2018-07-14T03:49:13.414Z,67.07
2018-07-14T03:51:46.519Z,70.43
2018-07-14T03:54:19.563Z,68.63
2018-07-14T03:59:31.249Z,69.54
2018-07-14T04:02:05.491Z,68.31
2018-07-14T04:04:39.287Z,69.35
2018-07-14T04:07:13.600Z,69.27
2018-07-14T04:09:49.045Z,69.27
2018-07-14T04:12:24.298Z,69.03
2018-07-14T04:14:58.470Z,69.23
2018-07-14T04:17:31.844Z,68.76
2018-07-14T04:20:05.955Z,67.77
2018-07-14T04:22:38.864Z,69.42
2018-07-14T04:25:18.340Z,71.25
2018-07-14T04:27:55.204Z,69.14
2018-07-14T04:30:32.730Z,68.87
2018-07-14T04:33:07.630Z,69.17
2018-07-14T04:35:45.093Z,69.56
2018-07-14T04:38:22.237Z,66.46
2018-07-14T04:40:59.004Z,62.02
2018-07-14T04:43:34.002Z,63.07
2018-07-14T04:46:09.457Z,61.48
2018-07-14T04:48:44.715Z,57.09
2018-07-14T04:51:19.828Z,64.13
2018-07-14T04:53:54.672Z,66.75
2018-07-14T04:56:30.952Z,68.25
2018-07-14T04:59:08.235Z,68.54
2018-07-14T05:01:51.059Z,68.35
2018-07-14T05:04:35.982Z,68.59
2018-07-14T05:07:29.110Z,68.43
2018-07-14T05:10:15.668Z,68.03
2018-07-14T05:16:03.699Z,68.14
2018-07-14T05:18:46.003Z,68.00
2018-07-14T05:21:31.673Z,68.15
2018-07-14T05:24:22.831Z,68.84
2018-07-14T05:30:30.055Z,68.35
2018-07-14T05:33:16.758Z,68.88
2018-07-14T05:36:02.649Z,68.32
2018-07-14T05:38:47.486Z,69.66
2018-07-14T05:41:32.879Z,69.16
2018-07-14T05:44:13.273Z,69.16
2018-07-14T05:46:53.211Z,69.33
2018-07-14T05:49:35.026Z,68.54
2018-07-14T05:52:19.820Z,69.78
2018-07-14T05:55:00.978Z,69.14
2018-07-14T05:57:42.295Z,70.00
2018-07-14T06:00:23.196Z,70.72
2018-07-14T06:03:00.201Z,69.01
2018-07-14T06:05:37.252Z,69.78
2018-07-14T06:08:13.667Z,67.89
2018-07-14T06:10:51.961Z,68.92
2018-07-14T06:13:35.392Z,68.26
2018-07-14T06:16:15.851Z,69.86
2018-07-14T06:19:00.098Z,70.24
2018-07-14T06:21:44.593Z,70.96
2018-07-14T06:24:26.342Z,71.26
2018-07-14T06:27:07.994Z,69.11
2018-07-14T06:29:53.072Z,69.98
2018-07-14T06:32:37.867Z,69.77
2018-07-14T06:35:30.474Z,68.28
2018-07-14T06:38:15.849Z,65.81
2018-07-14T06:41:01.189Z,65.32
2018-07-14T06:43:45.653Z,67.59
2018-07-14T06:46:30.174Z,68.62
2018-07-14T06:49:12.448Z,67.45
2018-07-14T06:51:56.710Z,67.03
2018-07-14T06:54:38.364Z,66.00
2018-07-14T06:57:20.083Z,68.57
2018-07-14T07:00:01.988Z,66.26
2018-07-14T07:02:43.279Z,68.44
2018-07-14T07:05:29.150Z,70.76
2018-07-14T07:08:10.176Z,71.98
2018-07-14T07:10:56.762Z,71.41
2018-07-14T07:13:43.447Z,69.63
2018-07-14T07:16:26.431Z,70.53
2018-07-14T07:19:09.182Z,69.60
2018-07-14T07:21:47.243Z,70.21
2018-07-14T07:24:30.103Z,69.84
2018-07-14T07:29:55.643Z,71.39
2018-07-14T07:32:36.687Z,70.74
2018-07-14T07:35:17.362Z,70.72
2018-07-14T07:37:59.456Z,72.23
2018-07-14T07:40:39.603Z,72.36
2018-07-14T07:43:20.161Z,72.21
2018-07-14T07:45:59.731Z,72.16
2018-07-14T07:48:39.010Z,71.45
2018-07-14T07:51:19.614Z,66.80
2018-07-14T07:54:01.411Z,66.38
2018-07-14T07:56:41.644Z,68.95
2018-07-14T07:59:21.522Z,70.39
2018-07-14T08:02:00.946Z,71.83
2018-07-14T08:04:42.596Z,72.67
2018-07-14T08:07:22.538Z,72.93
2018-07-14T08:10:01.987Z,71.23
2018-07-14T08:12:45.039Z,71.13
2018-07-14T08:15:26.293Z,71.86
2018-07-14T08:18:05.730Z,72.52
2018-07-14T08:20:48.973Z,73.50
2018-07-14T08:23:33.887Z,72.35
2018-07-14T08:26:15.597Z,72.75
2018-07-14T08:28:58.917Z,73.26
2018-07-14T08:31:43.565Z,71.82
2018-07-14T08:34:25.988Z,73.13
2018-07-14T08:37:10.713Z,73.47
2018-07-14T08:39:54.338Z,73.75
2018-07-14T08:42:38.908Z,71.91
2018-07-14T08:45:25.234Z,71.42
2018-07-14T08:48:09.463Z,70.59
2018-07-14T08:50:58.111Z,70.12
2018-07-14T08:53:45.352Z,69.68
2018-07-14T08:56:28.456Z,69.41
2018-07-14T08:59:01.449Z,69.58
2018-07-14T09:01:36.703Z,71.52
2018-07-14T09:04:10.146Z,69.93
2018-07-14T09:06:43.524Z,69.23
2018-07-14T09:09:16.227Z,68.77
2018-07-14T09:11:49.643Z,69.26
2018-07-14T09:14:22.608Z,70.39
2018-07-14T09:16:55.246Z,68.68
2018-07-14T09:19:27.893Z,69.59
2018-07-14T09:22:01.949Z,70.03
2018-07-14T09:24:34.693Z,72.06
2018-07-14T09:27:07.160Z,70.32
2018-07-14T09:29:39.864Z,69.43
2018-07-14T09:32:13.821Z,68.63
2018-07-14T09:34:46.723Z,67.32
2018-07-14T09:37:19.810Z,69.61
2018-07-14T09:39:52.051Z,66.91
2018-07-14T09:42:24.743Z,68.18
2018-07-14T09:45:06.926Z,67.22
2018-07-14T09:47:39.861Z,67.64
2018-07-14T09:50:14.686Z,67.79
2018-07-14T09:52:47.153Z,67.86
2018-07-14T09:55:19.948Z,67.56
2018-07-14T09:57:53.553Z,67.12
2018-07-14T10:00:42.234Z,65.73
2018-07-14T10:03:23.164Z,67.07
2018-07-14T10:06:04.437Z,67.87
2018-07-14T10:08:53.425Z,67.09
2018-07-14T10:11:36.225Z,66.37
2018-07-14T10:14:18.627Z,66.96
2018-07-14T10:17:04.231Z,65.75
2018-07-14T10:19:48.161Z,67.08
2018-07-14T10:22:35.400Z,69.01
2018-07-14T10:25:17.815Z,67.24
2018-07-14T10:28:02.570Z,68.49
2018-07-14T10:30:46.168Z,66.74
2018-07-14T10:33:29.871Z,67.25
2018-07-14T10:36:13.195Z,67.61
2018-07-14T10:38:57.500Z,69.14
2018-07-14T10:41:41.491Z,66.97
2018-07-14T10:44:24.045Z,68.07
2018-07-14T10:47:09.251Z,69.41
2018-07-14T10:49:53.589Z,68.54
2018-07-14T10:52:41.525Z,67.29
2018-07-14T10:55:27.573Z,67.05
2018-07-14T10:58:14.386Z,67.89
2018-07-14T11:01:01.451Z,67.86
2018-07-14T11:03:42.489Z,66.53
2018-07-14T11:06:24.827Z,67.44
2018-07-14T11:09:06.704Z,67.27
2018-07-14T11:11:48.354Z,65.75
2018-07-14T11:14:30.309Z,67.04
2018-07-14T11:17:12.829Z,65.64
2018-07-14T11:19:54.761Z,67.05
2018-07-14T11:22:35.839Z,67.87
2018-07-14T11:25:17.596Z,68.81
2018-07-14T11:28:00.796Z,66.51
2018-07-14T11:30:43.080Z,65.64
2018-07-14T11:33:25.383Z,67.28
2018-07-14T11:36:07.670Z,66.34
2018-07-14T11:38:50.237Z,65.76
2018-07-14T11:41:32.351Z,64.88
2018-07-14T11:44:17.390Z,65.42
2018-07-14T11:46:59.475Z,66.78
2018-07-14T11:49:44.185Z,65.64
2018-07-14T11:52:25.405Z,68.89
2018-07-14T11:55:08.239Z,65.61
2018-07-14T11:57:49.573Z,65.12
2018-07-14T12:00:31.480Z,66.22
2018-07-14T12:03:11.559Z,66.79
2018-07-14T12:05:52.297Z,67.17
2018-07-14T12:08:32.426Z,65.64
2018-07-14T12:11:11.665Z,64.93
2018-07-14T12:13:51.020Z,64.71
2018-07-14T12:16:27.380Z,65.28
2018-07-14T12:19:06.047Z,65.91
2018-07-14T12:21:43.240Z,65.65
2018-07-14T12:24:21.487Z,65.11
2018-07-14T12:26:59.213Z,65.69
2018-07-14T12:29:36.278Z,66.97
2018-07-14T12:32:11.944Z,66.70
2018-07-14T12:34:47.170Z,65.01
2018-07-14T12:37:25.590Z,65.89
2018-07-14T12:40:02.310Z,65.82
2018-07-14T12:42:37.981Z,66.36
2018-07-14T12:45:14.359Z,67.79
2018-07-14T12:47:50.212Z,65.59
2018-07-14T12:50:25.026Z,63.96
2018-07-14T12:53:00.063Z,63.71
2018-07-14T12:55:34.702Z,64.11
2018-07-14T12:58:06.341Z,64.18
2018-07-14T13:00:38.184Z,66.91
2018-07-14T13:03:10.023Z,65.16
2018-07-14T13:05:41.791Z,64.70
2018-07-14T13:08:13.899Z,63.73
2018-07-14T13:10:46.020Z,65.37
2018-07-14T13:13:18.535Z,63.38
2018-07-14T13:15:51.008Z,63.68
2018-07-14T13:18:22.572Z,64.31
2018-07-14T13:20:54.306Z,66.09
2018-07-14T13:23:25.736Z,66.82
2018-07-14T13:25:57.415Z,66.39
2018-07-14T13:28:29.146Z,64.99
2018-07-14T13:31:00.860Z,65.67
2018-07-14T13:33:32.312Z,65.20
2018-07-14T13:36:04.063Z,64.93
2018-07-14T13:38:35.875Z,67.90
2018-07-14T13:41:07.495Z,66.92
2018-07-14T13:43:39.416Z,66.21
2018-07-14T13:46:11.102Z,66.12
2018-07-14T13:48:42.928Z,66.31
2018-07-14T13:51:14.767Z,66.51
2018-07-14T13:53:46.629Z,66.10
2018-07-14T13:56:18.270Z,67.81
2018-07-14T13:58:49.977Z,66.91
2018-07-14T14:01:21.689Z,66.36
2018-07-14T14:03:53.441Z,65.07
2018-07-14T14:06:24.966Z,59.84
2018-07-14T14:08:56.792Z,59.47
2018-07-14T14:11:30.592Z,59.47
2018-07-14T14:14:02.360Z,60.50
2018-07-14T14:16:33.936Z,61.00
2018-07-14T14:19:06.110Z,62.58
2018-07-14T14:21:37.956Z,65.60
2018-07-14T14:24:10.394Z,65.27
2018-07-14T14:26:42.535Z,67.60
2018-07-14T14:29:13.912Z,65.75
2018-07-14T14:31:45.551Z,66.33
2018-07-14T14:34:17.375Z,66.99
2018-07-14T14:36:49.040Z,66.72
2018-07-14T14:39:20.869Z,67.19
2018-07-14T14:41:52.595Z,66.42
2018-07-14T14:44:24.441Z,67.19
2018-07-14T14:46:56.104Z,67.73
2018-07-14T14:49:27.937Z,67.82
2018-07-14T14:51:59.616Z,68.66
2018-07-14T14:54:31.549Z,69.23
2018-07-14T14:57:03.384Z,68.98
2018-07-14T14:59:35.133Z,68.04
2018-07-14T15:02:07.439Z,67.65
2018-07-14T15:04:39.068Z,69.27
2018-07-14T15:07:10.773Z,67.52
2018-07-14T15:09:42.644Z,69.56
2018-07-14T15:12:14.039Z,69.17
2018-07-14T15:14:45.911Z,69.38
2018-07-14T15:17:17.629Z,68.42
2018-07-14T15:19:49.727Z,69.06
2018-07-14T15:22:21.417Z,69.28
2018-07-14T15:24:53.340Z,69.40
2018-07-14T15:27:24.936Z,69.76
2018-07-14T15:29:57.034Z,69.75
2018-07-14T15:32:28.725Z,70.20
2018-07-14T15:35:00.629Z,70.16
2018-07-14T15:37:32.432Z,70.25
2018-07-14T15:40:04.282Z,69.83
2018-07-14T15:42:36.036Z,69.43
2018-07-14T15:45:07.875Z,70.29
2018-07-14T15:47:39.521Z,69.84
2018-07-14T15:50:11.267Z,69.95
2018-07-14T15:52:42.964Z,70.30
2018-07-14T15:55:14.672Z,70.03
2018-07-14T15:57:46.269Z,68.79
2018-07-14T16:00:18.209Z,69.67
2018-07-14T16:02:50.849Z,70.56
2018-07-14T16:05:22.792Z,70.85
2018-07-14T16:07:54.835Z,70.54
2018-07-14T16:10:26.717Z,71.29
2018-07-14T16:12:58.156Z,71.49
2018-07-14T16:15:30.084Z,70.70
2018-07-14T16:18:01.692Z,71.82
2018-07-14T16:20:33.962Z,70.17
2018-07-14T16:23:05.621Z,67.16
2018-07-14T16:25:37.480Z,67.46
2018-07-14T16:28:09.101Z,67.16
2018-07-14T16:30:40.697Z,67.34
2018-07-14T16:33:12.637Z,66.61
2018-07-14T16:35:45.154Z,66.54
2018-07-14T16:38:16.803Z,66.03
2018-07-14T16:40:49.382Z,64.78
2018-07-14T16:43:21.288Z,62.50
2018-07-14T16:45:52.959Z,63.79
2018-07-14T16:48:25.774Z,63.53
2018-07-14T16:50:57.669Z,62.13
2018-07-14T16:53:29.461Z,60.39
2018-07-14T16:56:02.975Z,61.32
2018-07-14T16:58:34.870Z,61.55
2018-07-14T17:01:06.905Z,61.50
2018-07-14T17:03:40.202Z,61.51
2018-07-14T17:06:11.820Z,61.44
2018-07-14T17:08:44.254Z,61.12
2018-07-14T17:11:16.124Z,60.27
2018-07-14T17:13:47.592Z,60.70
2018-07-14T17:16:19.460Z,61.31
2018-07-14T17:18:51.041Z,60.67
2018-07-14T17:21:22.887Z,61.69
2018-07-14T17:23:54.845Z,61.81
2018-07-14T17:26:26.759Z,61.87
2018-07-14T17:28:58.692Z,61.05
2018-07-14T17:31:30.513Z,58.34
2018-07-14T17:34:02.052Z,56.57
2018-07-14T17:36:33.819Z,57.90
2018-07-14T17:39:06.451Z,58.89
2018-07-14T17:41:38.175Z,58.87
2018-07-14T17:44:09.611Z,60.43
2018-07-14T17:46:41.342Z,59.97
2018-07-14T17:49:12.804Z,58.37
2018-07-14T17:51:44.602Z,59.28
2018-07-14T17:54:16.308Z,57.76
2018-07-14T17:56:48.201Z,55.99
2018-07-14T17:59:20.038Z,57.44
2018-07-14T18:01:51.897Z,58.06
2018-07-14T18:04:23.650Z,58.19
2018-07-14T18:06:55.462Z,57.47
2018-07-14T18:09:27.205Z,58.42
2018-07-14T18:11:59.435Z,58.46
2018-07-14T18:14:30.949Z,58.14
2018-07-14T18:17:02.861Z,58.45
2018-07-14T18:19:34.282Z,58.31
2018-07-14T18:22:06.118Z,59.23
2018-07-14T18:24:37.756Z,59.70
2018-07-14T18:27:09.680Z,58.53
2018-07-14T18:29:41.302Z,59.88
2018-07-14T18:32:12.939Z,59.41
2018-07-14T18:34:44.891Z,59.85
2018-07-14T18:37:16.742Z,59.79
2018-07-14T18:39:48.363Z,59.28
2018-07-14T18:42:20.276Z,60.05
2018-07-14T18:44:51.921Z,60.10
2018-07-14T18:47:23.782Z,61.44
2018-07-14T18:49:55.484Z,58.40
2018-07-14T18:52:27.137Z,57.77
2018-07-14T18:54:59.019Z,58.33
2018-07-14T18:57:30.793Z,58.13
2018-07-14T19:00:02.451Z,56.88
2018-07-14T19:02:34.263Z,58.16
2018-07-14T19:05:06.239Z,57.73
2018-07-14T19:07:37.824Z,58.92
2018-07-14T19:10:10.067Z,59.30
2018-07-14T19:12:41.782Z,58.50
2018-07-14T19:15:13.445Z,58.97
2018-07-14T19:17:45.340Z,59.65
2018-07-14T19:20:16.865Z,57.25
2018-07-14T19:22:48.630Z,59.80
2018-07-14T19:25:20.338Z,58.36
2018-07-14T19:27:52.090Z,59.46
2018-07-14T19:30:23.929Z,60.05
2018-07-14T19:32:55.648Z,58.82
2018-07-14T19:35:27.320Z,59.50
2018-07-14T19:37:58.901Z,60.88
2018-07-14T19:40:30.584Z,59.89
2018-07-14T19:43:02.438Z,60.79
2018-07-14T19:45:34.084Z,61.35
2018-07-14T19:48:05.733Z,60.77
2018-07-14T19:50:37.436Z,59.86
2018-07-14T19:53:09.235Z,60.51
2018-07-14T19:55:41.206Z,59.16
2018-07-14T19:58:13.035Z,59.00
2018-07-14T20:00:44.715Z,58.92
2018-07-14T20:03:16.486Z,57.44
2018-07-14T20:05:48.178Z,57.74
2018-07-14T20:08:19.887Z,59.71
2018-07-14T20:10:51.536Z,58.37
2018-07-14T20:13:24.098Z,59.00
2018-07-14T20:15:55.849Z,59.62
2018-07-14T20:18:27.658Z,58.88
2018-07-14T20:20:59.347Z,59.43
2018-07-14T20:23:31.140Z,59.44
2018-07-14T20:26:03.078Z,59.79
2018-07-14T20:28:34.909Z,59.12
2018-07-14T20:31:06.595Z,58.66
2018-07-14T20:33:38.649Z,59.38
2018-07-14T20:36:10.593Z,59.94
2018-07-14T20:38:42.379Z,59.62
2018-07-14T20:41:14.004Z,60.12
2018-07-14T20:43:46.088Z,60.77
2018-07-14T20:46:17.764Z,59.38
2018-07-14T20:48:49.597Z,59.37
2018-07-14T20:51:20.919Z,59.95
2018-07-14T20:53:52.713Z,59.74
2018-07-14T20:56:24.327Z,58.76
2018-07-14T20:58:56.220Z,58.38
2018-07-14T21:01:27.873Z,58.93
2018-07-14T21:03:59.760Z,59.37
2018-07-14T21:06:31.376Z,60.20
2018-07-14T21:09:03.069Z,59.86
2018-07-14T21:11:34.677Z,59.39
2018-07-14T21:14:06.547Z,59.09
2018-07-14T21:16:38.490Z,59.39
2018-07-14T21:19:10.362Z,60.16
2018-07-14T21:21:42.117Z,60.23
2018-07-14T21:24:13.977Z,60.73
2018-07-14T21:26:45.701Z,61.31
2018-07-14T21:29:17.532Z,60.75
2018-07-14T21:31:49.199Z,60.12
2018-07-14T21:34:21.039Z,59.93
2018-07-14T21:36:52.878Z,59.25
2018-07-14T21:39:24.597Z,60.59
2018-07-14T21:41:56.372Z,59.57
2018-07-14T21:44:28.229Z,60.74
2018-07-14T21:46:59.868Z,59.75
2018-07-14T21:49:31.717Z,59.01
2018-07-14T21:52:03.254Z,59.13
2018-07-14T21:54:35.026Z,59.02
2018-07-14T21:57:06.523Z,59.05
2018-07-14T21:59:38.364Z,60.52
2018-07-14T22:02:10.163Z,60.09
2018-07-14T22:04:42.525Z,60.57
2018-07-14T22:07:14.138Z,60.59
2018-07-14T22:09:45.999Z,59.18
2018-07-14T22:12:17.735Z,59.82
2018-07-14T22:14:49.587Z,59.42
2018-07-14T22:17:21.200Z,60.90
2018-07-14T22:19:53.035Z,60.43
2018-07-14T22:22:24.706Z,59.33
2018-07-14T22:24:56.580Z,59.95
2018-07-14T22:27:28.158Z,60.59
2018-07-14T22:29:59.896Z,60.35
2018-07-14T22:32:31.384Z,58.43
2018-07-14T22:35:03.322Z,59.90
2018-07-14T22:37:34.979Z,59.01
2018-07-14T22:40:06.698Z,59.37
2018-07-14T22:42:38.403Z,59.91
2018-07-14T22:45:11.899Z,60.27
2018-07-14T22:47:43.341Z,59.60
2018-07-14T22:50:15.199Z,59.46
2018-07-14T22:52:46.645Z,59.87
2018-07-14T22:55:18.550Z,58.98
2018-07-14T22:57:50.385Z,58.72
2018-07-14T23:00:22.493Z,59.52
2018-07-14T23:02:54.349Z,60.04
2018-07-14T23:05:26.147Z,59.95
2018-07-14T23:07:57.608Z,60.11
2018-07-14T23:10:29.148Z,60.73
2018-07-14T23:13:00.837Z,60.29
2018-07-14T23:15:32.645Z,61.93
2018-07-14T23:18:04.645Z,62.56
2018-07-14T23:20:36.587Z,61.70
2018-07-14T23:23:08.301Z,61.90
2018-07-14T23:25:40.272Z,63.00
2018-07-14T23:28:12.019Z,62.62
2018-07-14T23:30:43.912Z,61.69
2018-07-14T23:33:15.578Z,62.68
2018-07-14T23:35:47.434Z,62.12
2018-07-14T23:38:19.081Z,60.07
2018-07-14T23:40:50.975Z,59.21
2018-07-14T23:43:22.626Z,60.14
2018-07-14T23:45:54.217Z,59.33
2018-07-14T23:48:25.913Z,59.99
2018-07-14T23:50:57.761Z,60.57
2018-07-14T23:53:29.421Z,61.52
2018-07-14T23:56:01.245Z,61.84
2018-07-14T23:58:32.967Z,60.59
